createdAt,value
2019-01-20T00:00:01.571Z,988.58
2019-01-20T00:02:01.485Z,988.56
2019-01-20T00:03:01.495Z,988.56
2019-01-20T00:04:01.501Z,988.60
2019-01-20T00:05:01.716Z,988.55
2019-01-20T00:06:01.412Z,988.56
2019-01-20T00:07:01.428Z,988.54
2019-01-20T00:08:03.223Z,988.60
2019-01-20T00:09:03.255Z,988.55
2019-01-20T00:10:01.483Z,988.58
2019-01-20T00:11:02.167Z,988.61
2019-01-20T00:12:01.266Z,988.60
2019-01-20T00:13:01.244Z,988.57
2019-01-20T00:14:01.228Z,988.56
2019-01-20T00:15:02.668Z,988.58
2019-01-20T00:16:01.129Z,988.59
2019-01-20T00:17:02.689Z,988.61
2019-01-20T00:18:01.288Z,988.64
2019-01-20T00:19:02.062Z,988.63
2019-01-20T00:20:01.200Z,988.64
2019-01-20T00:21:01.139Z,988.66
2019-01-20T00:22:01.774Z,988.67
2019-01-20T00:23:01.191Z,988.68
2019-01-20T00:24:00.952Z,988.70
2019-01-20T00:25:00.923Z,988.73
2019-01-20T00:26:00.952Z,988.74
2019-01-20T00:27:01.006Z,988.77
2019-01-20T00:28:01.008Z,988.78
2019-01-20T00:29:00.975Z,988.79
2019-01-20T00:30:01.133Z,988.80
2019-01-20T00:31:00.881Z,988.79
2019-01-20T00:32:00.784Z,988.81
2019-01-20T00:33:00.744Z,988.80
2019-01-20T00:34:01.673Z,988.77
2019-01-20T00:35:00.728Z,988.83
2019-01-20T00:36:00.810Z,988.79
2019-01-20T00:37:00.857Z,988.79
2019-01-20T00:38:00.658Z,988.80
2019-01-20T00:40:00.703Z,988.80
2019-01-20T00:41:00.692Z,988.83
2019-01-20T00:42:02.420Z,988.80
2019-01-20T00:43:00.677Z,988.86
2019-01-20T00:44:00.545Z,988.86
2019-01-20T00:45:02.695Z,988.88
2019-01-20T00:46:02.261Z,988.88
2019-01-20T00:47:00.484Z,988.83
2019-01-20T00:48:00.720Z,988.90
2019-01-20T00:49:00.609Z,988.92
2019-01-20T00:50:02.375Z,988.91
2019-01-20T00:51:00.476Z,988.94
2019-01-20T00:52:00.430Z,988.99
2019-01-20T00:53:00.473Z,988.96
2019-01-20T00:54:00.378Z,989.03
2019-01-20T00:55:00.290Z,989.02
2019-01-20T00:56:00.316Z,989.05
2019-01-20T00:57:00.466Z,989.07
2019-01-20T00:58:00.276Z,989.06
2019-01-20T00:59:00.327Z,989.06
2019-01-20T01:00:00.395Z,989.08
2019-01-20T01:01:00.282Z,989.15
2019-01-20T01:02:00.311Z,989.12
2019-01-20T01:03:00.745Z,989.14
2019-01-20T01:04:00.212Z,989.17
2019-01-20T01:05:00.181Z,989.18
2019-01-20T01:06:00.192Z,989.16
2019-01-20T01:07:00.155Z,989.17
2019-01-20T01:08:00.121Z,989.13
2019-01-20T01:09:00.180Z,989.19
2019-01-20T01:10:00.087Z,989.23
2019-01-20T01:11:00.006Z,989.23
2019-01-20T01:11:59.915Z,989.24
2019-01-20T01:12:59.985Z,989.27
2019-01-20T01:13:59.920Z,989.31
2019-01-20T01:14:59.807Z,989.33
2019-01-20T01:16:00.006Z,989.31
2019-01-20T01:16:59.838Z,989.35
2019-01-20T01:17:59.770Z,989.36
2019-01-20T01:19:01.786Z,989.34
2019-01-20T01:20:00.020Z,989.39
2019-01-20T01:20:59.885Z,989.44
2019-01-20T01:21:59.826Z,989.43
2019-01-20T01:22:59.743Z,989.44
2019-01-20T01:24:00.142Z,989.47
2019-01-20T01:24:59.941Z,989.42
2019-01-20T01:25:59.625Z,989.48
2019-01-20T01:26:59.770Z,989.48
2019-01-20T01:27:59.682Z,989.52
2019-01-20T01:28:59.602Z,989.52
2019-01-20T01:30:00.008Z,989.54
2019-01-20T01:30:59.669Z,989.58
2019-01-20T01:31:59.629Z,989.62
2019-01-20T01:32:59.836Z,989.54
2019-01-20T01:33:59.536Z,989.59
2019-01-20T01:34:59.370Z,989.57
2019-01-20T01:35:59.345Z,989.60
2019-01-20T01:36:59.427Z,989.63
2019-01-20T01:37:59.664Z,989.65
2019-01-20T01:38:59.291Z,989.70
2019-01-20T01:39:59.682Z,989.68
2019-01-20T01:41:01.323Z,989.68
2019-01-20T01:41:59.321Z,989.68
2019-01-20T01:42:59.380Z,989.73
2019-01-20T01:44:00.129Z,989.81
2019-01-20T01:44:59.239Z,989.78
2019-01-20T01:45:59.217Z,989.81
2019-01-20T01:46:59.275Z,989.86
2019-01-20T01:47:59.214Z,989.88
2019-01-20T01:48:59.137Z,989.88
2019-01-20T01:49:59.138Z,989.90
2019-01-20T01:50:59.043Z,989.87
2019-01-20T01:51:59.139Z,989.83
2019-01-20T01:52:59.010Z,989.98
2019-01-20T01:53:59.015Z,989.97
2019-01-20T01:54:59.061Z,989.96
2019-01-20T01:55:58.938Z,989.94
2019-01-20T01:56:59.810Z,989.98
2019-01-20T01:57:59.119Z,989.89
2019-01-20T01:58:58.897Z,990.04
2019-01-20T01:59:58.865Z,990.07
2019-01-20T02:00:58.964Z,990.10
2019-01-20T02:01:58.928Z,990.07
2019-01-20T02:02:58.809Z,990.04
2019-01-20T02:03:59.694Z,990.06
2019-01-20T02:04:59.640Z,990.10
2019-01-20T02:05:58.811Z,990.13
2019-01-20T02:06:58.783Z,990.10
2019-01-20T02:07:58.828Z,990.15
2019-01-20T02:08:58.744Z,990.12
2019-01-20T02:09:59.269Z,990.16
2019-01-20T02:10:58.712Z,990.16
2019-01-20T02:11:58.702Z,990.18
2019-01-20T02:12:58.838Z,990.21
2019-01-20T02:13:59.371Z,990.27
2019-01-20T02:14:58.570Z,990.26
2019-01-20T02:15:58.734Z,990.25
2019-01-20T02:16:58.763Z,990.30
2019-01-20T02:17:58.524Z,990.32
2019-01-20T02:18:58.420Z,990.36
2019-01-20T02:19:58.590Z,990.36
2019-01-20T02:20:58.362Z,990.43
2019-01-20T02:21:58.426Z,990.47
2019-01-20T02:22:58.532Z,990.46
2019-01-20T02:23:58.384Z,990.52
2019-01-20T02:24:58.462Z,990.52
2019-01-20T02:26:00.421Z,990.57
2019-01-20T02:26:59.257Z,990.47
2019-01-20T02:27:58.726Z,990.60
2019-01-20T02:28:58.232Z,990.61
2019-01-20T02:30:01.267Z,990.58
2019-01-20T02:30:58.117Z,990.62
2019-01-20T02:31:58.222Z,990.67
2019-01-20T02:32:58.096Z,990.68
2019-01-20T02:33:58.268Z,990.63
2019-01-20T02:34:58.301Z,990.66
2019-01-20T02:35:58.020Z,990.68
2019-01-20T02:36:58.003Z,990.71
2019-01-20T02:37:58.145Z,990.69
2019-01-20T02:38:58.149Z,990.70
2019-01-20T02:39:58.105Z,990.75
2019-01-20T02:40:58.074Z,990.80
2019-01-20T02:41:57.986Z,990.79
2019-01-20T02:42:58.006Z,990.79
2019-01-20T02:43:59.695Z,990.82
2019-01-20T02:44:58.771Z,990.83
2019-01-20T02:45:58.016Z,990.84
2019-01-20T02:46:57.949Z,990.85
2019-01-20T02:47:57.914Z,990.91
2019-01-20T02:48:57.775Z,990.88
2019-01-20T02:49:57.728Z,990.89
2019-01-20T02:50:57.801Z,990.92
2019-01-20T02:51:59.723Z,990.87
2019-01-20T02:52:57.719Z,990.91
2019-01-20T02:53:57.775Z,990.91
2019-01-20T02:54:57.689Z,990.92
2019-01-20T02:55:57.866Z,990.94
2019-01-20T02:56:57.668Z,990.97
2019-01-20T02:57:57.615Z,990.99
2019-01-20T02:58:57.711Z,991.00
2019-01-20T02:59:58.280Z,991.00
2019-01-20T03:00:57.534Z,991.09
2019-01-20T03:01:57.499Z,990.98
2019-01-20T03:02:57.494Z,991.07
2019-01-20T03:03:58.133Z,991.00
2019-01-20T03:04:58.259Z,991.14
2019-01-20T03:05:57.487Z,991.06
2019-01-20T03:06:57.477Z,991.10
2019-01-20T03:07:57.434Z,991.16
2019-01-20T03:09:57.517Z,991.21
2019-01-20T03:10:57.216Z,991.25
2019-01-20T03:12:03.465Z,991.21
2019-01-20T03:12:57.296Z,991.27
2019-01-20T03:13:57.352Z,991.27
2019-01-20T03:14:57.323Z,991.27
2019-01-20T03:15:57.306Z,991.32
2019-01-20T03:16:57.272Z,991.31
2019-01-20T03:17:57.321Z,991.35
2019-01-20T03:18:57.097Z,991.36
2019-01-20T03:19:57.120Z,991.36
2019-01-20T03:20:57.125Z,991.37
2019-01-20T03:21:57.071Z,991.37
2019-01-20T03:22:57.689Z,991.38
2019-01-20T03:23:57.015Z,991.42
2019-01-20T03:24:57.036Z,991.45
2019-01-20T03:25:56.962Z,991.43
2019-01-20T03:27:56.970Z,991.47
2019-01-20T03:28:57.156Z,991.50
2019-01-20T03:29:57.001Z,991.58
2019-01-20T03:30:57.112Z,991.56
2019-01-20T03:31:56.868Z,991.58
2019-01-20T03:32:56.773Z,991.60
2019-01-20T03:33:57.012Z,991.64
2019-01-20T03:34:56.968Z,991.64
2019-01-20T03:35:56.893Z,991.74
2019-01-20T03:36:56.811Z,991.68
2019-01-20T03:37:56.789Z,991.75
2019-01-20T03:38:56.764Z,991.82
2019-01-20T03:39:56.621Z,991.85
2019-01-20T03:40:56.716Z,991.86
2019-01-20T03:41:56.610Z,991.92
2019-01-20T03:42:56.532Z,991.87
2019-01-20T03:43:56.567Z,991.86
2019-01-20T03:44:56.632Z,991.86
2019-01-20T03:45:57.231Z,991.93
2019-01-20T03:46:56.612Z,991.93
2019-01-20T03:47:56.434Z,991.94
2019-01-20T03:48:56.630Z,991.97
2019-01-20T03:50:56.602Z,992.06
2019-01-20T03:51:56.318Z,992.00
2019-01-20T03:52:56.345Z,992.08
2019-01-20T03:53:56.394Z,992.08
2019-01-20T03:54:56.479Z,992.12
2019-01-20T03:55:56.426Z,992.12
2019-01-20T03:56:56.350Z,992.14
2019-01-20T03:57:56.265Z,992.17
2019-01-20T03:58:56.265Z,992.20
2019-01-20T03:59:56.252Z,992.22
2019-01-20T04:00:56.138Z,992.16
2019-01-20T04:01:56.113Z,992.24
2019-01-20T04:02:56.286Z,992.26
2019-01-20T04:03:56.769Z,992.31
2019-01-20T04:04:56.396Z,992.33
2019-01-20T04:05:56.280Z,992.36
2019-01-20T04:06:56.732Z,992.35
2019-01-20T04:07:55.955Z,992.40
2019-01-20T04:08:55.976Z,992.39
2019-01-20T04:09:55.928Z,992.42
2019-01-20T04:10:56.023Z,992.42
2019-01-20T04:11:56.682Z,992.42
2019-01-20T04:12:55.860Z,992.46
2019-01-20T04:13:55.993Z,992.38
2019-01-20T04:14:55.923Z,992.56
2019-01-20T04:15:55.816Z,992.55
2019-01-20T04:16:55.924Z,992.54
2019-01-20T04:17:55.848Z,992.54
2019-01-20T04:18:55.773Z,992.68
2019-01-20T04:19:57.749Z,992.59
2019-01-20T04:20:55.822Z,992.67
2019-01-20T04:21:55.758Z,992.70
2019-01-20T04:22:55.742Z,992.68
2019-01-20T04:23:55.581Z,992.71
2019-01-20T04:24:55.673Z,992.72
2019-01-20T04:25:55.724Z,992.69
2019-01-20T04:26:55.667Z,992.72
2019-01-20T04:27:55.551Z,992.79
2019-01-20T04:28:55.608Z,992.74
2019-01-20T04:29:55.505Z,992.76
2019-01-20T04:30:55.537Z,992.80
2019-01-20T04:31:56.288Z,992.80
2019-01-20T04:32:55.438Z,992.78
2019-01-20T04:33:55.519Z,992.73
2019-01-20T04:34:55.534Z,992.76
2019-01-20T04:35:55.485Z,992.87
2019-01-20T04:36:55.360Z,992.91
2019-01-20T04:37:55.320Z,992.90
2019-01-20T04:38:56.193Z,992.89
2019-01-20T04:39:55.333Z,992.94
2019-01-20T04:40:55.388Z,992.99
2019-01-20T04:41:55.270Z,992.93
2019-01-20T04:42:55.210Z,993.05
2019-01-20T04:43:55.268Z,993.07
2019-01-20T04:44:55.323Z,993.12
2019-01-20T04:45:55.383Z,993.08
2019-01-20T04:46:55.137Z,993.12
2019-01-20T04:47:55.080Z,993.18
2019-01-20T04:48:55.043Z,993.20
2019-01-20T04:49:55.243Z,993.15
2019-01-20T04:50:55.140Z,993.24
2019-01-20T04:52:55.071Z,993.28
2019-01-20T04:53:54.962Z,993.29
2019-01-20T04:54:54.920Z,993.33
2019-01-20T04:55:54.887Z,993.33
2019-01-20T04:56:54.947Z,993.38
2019-01-20T04:57:54.798Z,993.40
2019-01-20T04:58:54.874Z,993.42
2019-01-20T04:59:54.859Z,993.22
2019-01-20T05:00:54.843Z,993.50
2019-01-20T05:01:54.841Z,993.53
2019-01-20T05:02:54.729Z,993.55
2019-01-20T05:03:54.824Z,993.52
2019-01-20T05:04:54.691Z,993.64
2019-01-20T05:05:54.704Z,993.57
2019-01-20T05:07:54.673Z,993.67
2019-01-20T05:08:55.349Z,993.74
2019-01-20T05:09:54.686Z,993.78
2019-01-20T05:10:54.888Z,993.79
2019-01-20T05:11:54.715Z,993.66
2019-01-20T05:12:54.689Z,993.80
2019-01-20T05:13:54.541Z,993.84
2019-01-20T05:14:54.546Z,993.79
2019-01-20T05:15:56.403Z,993.95
2019-01-20T05:16:54.599Z,993.73
2019-01-20T05:17:54.439Z,993.88
2019-01-20T05:18:54.392Z,993.91
2019-01-20T05:19:54.352Z,993.92
2019-01-20T05:20:55.222Z,993.92
2019-01-20T05:21:54.475Z,993.96
2019-01-20T05:22:54.305Z,994.02
2019-01-20T05:23:54.406Z,993.99
2019-01-20T05:24:54.315Z,993.95
2019-01-20T05:25:54.314Z,994.04
2019-01-20T05:26:54.288Z,994.04
2019-01-20T05:27:54.145Z,994.09
2019-01-20T05:28:54.156Z,994.09
2019-01-20T05:29:54.137Z,994.09
2019-01-20T05:30:54.702Z,994.10
2019-01-20T05:31:55.079Z,994.12
2019-01-20T05:32:54.155Z,994.15
2019-01-20T05:33:54.088Z,994.13
2019-01-20T05:34:54.061Z,994.07
2019-01-20T05:35:54.629Z,994.19
2019-01-20T05:36:53.991Z,994.20
2019-01-20T05:37:53.857Z,994.22
2019-01-20T05:38:54.064Z,994.18
2019-01-20T05:39:53.913Z,994.15
2019-01-20T05:40:53.844Z,994.22
2019-01-20T05:41:53.893Z,994.23
2019-01-20T05:42:53.930Z,994.24
2019-01-20T05:43:53.910Z,994.24
2019-01-20T05:44:53.688Z,994.36
2019-01-20T05:45:53.736Z,994.36
2019-01-20T05:46:53.727Z,994.36
2019-01-20T05:47:53.745Z,994.43
2019-01-20T05:48:53.675Z,994.40
2019-01-20T05:49:53.578Z,994.48
2019-01-20T05:50:54.281Z,994.44
2019-01-20T05:51:53.601Z,994.44
2019-01-20T05:52:53.596Z,994.50
2019-01-20T05:53:53.863Z,994.47
2019-01-20T05:54:53.591Z,994.44
2019-01-20T05:55:53.559Z,994.56
2019-01-20T05:56:53.794Z,994.56
2019-01-20T05:57:53.538Z,994.54
2019-01-20T05:58:53.397Z,994.57
2019-01-20T05:59:53.509Z,994.62
2019-01-20T06:00:54.206Z,994.60
2019-01-20T06:01:53.359Z,994.68
2019-01-20T06:02:53.378Z,994.64
2019-01-20T06:03:53.327Z,994.70
2019-01-20T06:04:53.511Z,994.73
2019-01-20T06:05:53.305Z,994.71
2019-01-20T06:06:53.217Z,994.76
2019-01-20T06:07:53.267Z,994.76
2019-01-20T06:08:53.150Z,994.83
2019-01-20T06:09:53.643Z,994.82
2019-01-20T06:10:53.215Z,994.88
2019-01-20T06:11:53.105Z,994.90
2019-01-20T06:12:54.131Z,994.90
2019-01-20T06:13:53.047Z,994.96
2019-01-20T06:14:53.045Z,994.95
2019-01-20T06:15:53.048Z,994.91
2019-01-20T06:16:53.020Z,994.97
2019-01-20T06:17:52.931Z,994.99
2019-01-20T06:18:53.017Z,995.04
2019-01-20T06:19:52.956Z,995.02
2019-01-20T06:20:53.004Z,995.05
2019-01-20T06:21:52.794Z,995.01
2019-01-20T06:22:52.942Z,995.07
2019-01-20T06:23:52.799Z,995.04
2019-01-20T06:24:53.054Z,995.03
2019-01-20T06:25:52.724Z,995.07
2019-01-20T06:26:52.798Z,995.06
2019-01-20T06:27:53.058Z,995.14
2019-01-20T06:28:52.777Z,995.18
2019-01-20T06:29:52.828Z,995.18
2019-01-20T06:30:52.635Z,995.13
2019-01-20T06:31:52.646Z,995.21
2019-01-20T06:32:52.536Z,995.23
2019-01-20T06:33:52.488Z,994.98
2019-01-20T06:34:53.112Z,995.25
2019-01-20T06:35:52.500Z,995.28
2019-01-20T06:36:52.535Z,995.31
2019-01-20T06:37:54.167Z,995.31
2019-01-20T06:38:52.393Z,995.37
2019-01-20T06:39:52.512Z,995.35
2019-01-20T06:40:52.430Z,995.41
2019-01-20T06:41:52.516Z,995.43
2019-01-20T06:42:52.378Z,995.45
2019-01-20T06:43:52.379Z,995.43
2019-01-20T06:44:52.257Z,995.43
2019-01-20T06:45:52.281Z,995.53
2019-01-20T06:46:52.245Z,995.49
2019-01-20T06:47:52.230Z,995.41
2019-01-20T06:48:52.222Z,995.44
2019-01-20T06:49:52.153Z,995.57
2019-01-20T06:50:52.606Z,995.58
2019-01-20T06:51:52.114Z,995.64
2019-01-20T06:52:52.637Z,995.63
2019-01-20T06:53:52.106Z,995.59
2019-01-20T06:54:52.004Z,995.69
2019-01-20T06:55:52.033Z,995.70
2019-01-20T06:56:51.949Z,995.65
2019-01-20T06:57:51.907Z,995.68
2019-01-20T06:58:51.961Z,995.70
2019-01-20T06:59:51.946Z,995.69
2019-01-20T07:00:51.868Z,995.73
2019-01-20T07:01:51.947Z,995.70
2019-01-20T07:02:51.810Z,995.79
2019-01-20T07:03:51.790Z,995.79
2019-01-20T07:04:51.856Z,995.83
2019-01-20T07:05:51.689Z,995.88
2019-01-20T07:06:51.845Z,995.89
2019-01-20T07:07:53.516Z,995.85
2019-01-20T07:08:51.713Z,995.88
2019-01-20T07:09:51.656Z,995.99
2019-01-20T07:10:51.676Z,996.00
2019-01-20T07:11:51.577Z,996.02
2019-01-20T07:12:51.576Z,996.03
2019-01-20T07:13:51.544Z,996.02
2019-01-20T07:14:51.553Z,996.08
2019-01-20T07:15:51.461Z,996.07
2019-01-20T07:16:52.136Z,996.08
2019-01-20T07:17:51.440Z,996.13
2019-01-20T07:18:51.374Z,996.18
2019-01-20T07:19:51.369Z,996.19
2019-01-20T07:20:51.354Z,996.21
2019-01-20T07:21:51.394Z,996.07
2019-01-20T07:22:51.278Z,996.25
2019-01-20T07:23:51.266Z,996.26
2019-01-20T07:24:51.286Z,996.32
2019-01-20T07:25:51.289Z,996.21
2019-01-20T07:26:51.239Z,996.35
2019-01-20T07:27:52.152Z,996.25
2019-01-20T07:28:51.166Z,996.31
2019-01-20T07:29:51.118Z,996.28
2019-01-20T07:30:51.662Z,996.35
2019-01-20T07:31:51.059Z,996.36
2019-01-20T07:32:51.063Z,996.35
2019-01-20T07:33:51.726Z,996.42
2019-01-20T07:34:51.047Z,996.42
2019-01-20T07:35:50.934Z,996.43
2019-01-20T07:36:50.912Z,996.45
2019-01-20T07:37:50.898Z,996.48
2019-01-20T07:38:50.894Z,996.48
2019-01-20T07:39:50.867Z,996.48
2019-01-20T07:40:50.837Z,996.54
2019-01-20T07:41:50.885Z,996.56
2019-01-20T07:42:50.796Z,996.57
2019-01-20T07:43:50.830Z,996.58
2019-01-20T07:44:50.732Z,996.62
2019-01-20T07:45:50.708Z,996.63
2019-01-20T07:46:50.647Z,996.61
2019-01-20T07:47:50.702Z,996.65
2019-01-20T07:48:51.631Z,996.67
2019-01-20T07:49:50.627Z,996.65
2019-01-20T07:50:50.650Z,996.69
2019-01-20T07:51:51.196Z,996.67
2019-01-20T07:52:50.665Z,996.71
2019-01-20T07:53:50.541Z,996.73
2019-01-20T07:54:50.488Z,996.75
2019-01-20T07:55:51.031Z,996.78
2019-01-20T07:56:50.561Z,996.82
2019-01-20T07:57:50.468Z,996.84
2019-01-20T07:58:50.563Z,996.84
2019-01-20T07:59:50.562Z,996.86
2019-01-20T08:00:50.353Z,996.93
2019-01-20T08:01:50.426Z,996.90
2019-01-20T08:02:50.482Z,996.95
2019-01-20T08:03:50.424Z,996.99
2019-01-20T08:04:50.394Z,996.92
2019-01-20T08:05:50.466Z,996.94
2019-01-20T08:06:50.380Z,996.97
2019-01-20T08:07:51.264Z,997.02
2019-01-20T08:08:50.293Z,997.01
2019-01-20T08:09:50.356Z,997.05
2019-01-20T08:10:50.405Z,997.05
2019-01-20T08:11:50.230Z,997.05
2019-01-20T08:12:50.296Z,997.07
2019-01-20T08:13:50.348Z,997.07
2019-01-20T08:14:50.863Z,997.08
2019-01-20T08:15:51.852Z,997.10
2019-01-20T08:16:50.855Z,997.13
2019-01-20T08:17:50.403Z,997.15
2019-01-20T08:18:50.350Z,997.16
2019-01-20T08:19:50.185Z,997.13
2019-01-20T08:20:50.227Z,997.16
2019-01-20T08:21:50.987Z,997.21
2019-01-20T08:22:50.188Z,997.21
2019-01-20T08:23:50.238Z,997.29
2019-01-20T08:24:51.775Z,997.27
2019-01-20T08:25:50.766Z,997.26
2019-01-20T08:26:50.211Z,997.32
2019-01-20T08:28:50.041Z,997.34
2019-01-20T08:29:50.788Z,997.34
2019-01-20T08:30:50.539Z,997.42
2019-01-20T08:31:52.907Z,997.41
2019-01-20T08:32:50.886Z,997.39
2019-01-20T08:33:50.004Z,997.38
2019-01-20T08:34:51.836Z,997.41
2019-01-20T08:35:50.035Z,997.41
2019-01-20T08:36:52.900Z,997.42
2019-01-20T08:37:49.911Z,997.48
2019-01-20T08:38:49.994Z,997.50
2019-01-20T08:39:51.838Z,997.50
2019-01-20T08:40:50.076Z,997.50
2019-01-20T08:41:51.822Z,997.50
2019-01-20T08:43:12.841Z,997.53
2019-01-20T08:43:51.844Z,997.53
2019-01-20T08:44:49.905Z,997.58
2019-01-20T08:45:50.974Z,997.49
2019-01-20T08:46:49.933Z,997.54
2019-01-20T08:47:49.960Z,997.53
2019-01-20T08:48:49.839Z,997.51
2019-01-20T08:49:50.001Z,997.54
2019-01-20T08:50:52.416Z,997.53
2019-01-20T08:51:49.875Z,997.53
2019-01-20T08:52:49.968Z,997.50
2019-01-20T08:53:54.482Z,997.56
2019-01-20T08:54:50.459Z,997.57
2019-01-20T08:55:49.793Z,997.60
2019-01-20T08:56:51.443Z,997.62
2019-01-20T08:57:49.781Z,997.62
2019-01-20T08:58:49.791Z,997.59
2019-01-20T08:59:49.963Z,997.59
2019-01-20T09:00:49.964Z,997.62
2019-01-20T09:01:49.765Z,997.61
2019-01-20T09:02:58.887Z,997.66
2019-01-20T09:04:58.839Z,997.75
2019-01-20T09:05:57.295Z,997.76
2019-01-20T09:06:55.395Z,997.76
2019-01-20T09:07:57.268Z,997.76
2019-01-20T09:08:55.249Z,997.74
2019-01-20T09:09:55.205Z,997.76
2019-01-20T09:11:18.255Z,997.77
2019-01-20T09:11:55.427Z,997.77
2019-01-20T09:12:55.220Z,997.81
2019-01-20T09:13:55.837Z,997.76
2019-01-20T09:14:55.687Z,997.75
2019-01-20T09:15:56.744Z,997.78
2019-01-20T09:16:56.850Z,997.78
2019-01-20T09:17:55.132Z,997.78
2019-01-20T09:18:55.236Z,997.75
2019-01-20T09:19:56.667Z,997.80
2019-01-20T09:21:55.192Z,997.83
2019-01-20T09:22:55.433Z,997.79
2019-01-20T09:23:56.046Z,997.82
2019-01-20T09:24:55.131Z,997.79
2019-01-20T09:25:55.291Z,997.76
2019-01-20T09:26:55.091Z,997.82
2019-01-20T09:27:56.727Z,997.83
2019-01-20T09:28:55.038Z,997.81
2019-01-20T09:29:55.202Z,997.84
2019-01-20T09:30:55.676Z,997.84
2019-01-20T09:31:55.162Z,997.83
2019-01-20T09:32:56.547Z,997.88
2019-01-20T09:33:55.145Z,997.85
2019-01-20T09:34:55.114Z,997.88
2019-01-20T09:35:55.100Z,997.91
2019-01-20T09:36:55.638Z,997.95
2019-01-20T09:37:54.971Z,998.00
2019-01-20T09:39:01.970Z,997.96
2019-01-20T09:39:56.687Z,997.99
2019-01-20T09:40:54.941Z,997.99
2019-01-20T09:41:55.114Z,998.06
2019-01-20T09:42:55.170Z,998.03
2019-01-20T09:44:01.806Z,998.06
2019-01-20T09:44:54.956Z,998.07
2019-01-20T09:45:55.822Z,998.06
2019-01-20T09:46:54.891Z,998.12
2019-01-20T09:48:15.898Z,998.14
2019-01-20T09:48:54.935Z,998.11
2019-01-20T09:49:54.863Z,998.09
2019-01-20T09:50:55.006Z,998.12
2019-01-20T09:51:54.953Z,998.09
2019-01-20T09:52:56.757Z,998.09
2019-01-20T09:53:54.913Z,998.11
2019-01-20T09:54:54.918Z,998.13
2019-01-20T09:55:54.999Z,998.11
2019-01-20T09:56:54.900Z,998.12
2019-01-20T09:57:54.844Z,998.14
2019-01-20T09:58:55.811Z,998.14
2019-01-20T09:59:54.843Z,998.10
2019-01-20T10:01:01.667Z,998.09
2019-01-20T10:01:55.811Z,998.12
2019-01-20T10:02:56.861Z,998.12
2019-01-20T10:03:54.964Z,998.13
2019-01-20T10:04:55.851Z,998.11
2019-01-20T10:05:57.513Z,998.15
2019-01-20T10:06:56.803Z,998.08
2019-01-20T10:08:55.642Z,998.09
2019-01-20T10:09:55.145Z,998.08
2019-01-20T10:10:57.325Z,998.03
2019-01-20T10:11:54.618Z,998.12
2019-01-20T10:12:55.163Z,998.07
2019-01-20T10:13:55.078Z,998.11
2019-01-20T10:14:56.119Z,998.10
2019-01-20T10:15:54.655Z,998.09
2019-01-20T10:16:56.292Z,998.08
2019-01-20T10:17:54.720Z,998.10
2019-01-20T10:18:54.642Z,998.10
2019-01-20T10:19:54.724Z,998.09
2019-01-20T10:20:55.346Z,998.12
2019-01-20T10:21:57.864Z,998.17
2019-01-20T10:23:56.271Z,998.21
2019-01-20T10:24:54.543Z,998.18
2019-01-20T10:26:09.238Z,998.17
2019-01-20T10:26:56.220Z,998.22
2019-01-20T10:27:54.829Z,998.22
2019-01-20T10:28:54.636Z,998.26
2019-01-20T10:29:56.451Z,998.29
2019-01-20T10:31:16.337Z,998.29
2019-01-20T10:31:54.610Z,998.29
2019-01-20T10:32:55.271Z,998.28
2019-01-20T10:33:54.535Z,998.28
2019-01-20T10:34:57.239Z,998.27
2019-01-20T10:36:09.421Z,998.32
2019-01-20T10:36:54.659Z,998.30
2019-01-20T10:37:59.363Z,998.27
2019-01-20T10:38:54.543Z,998.31
2019-01-20T10:40:09.196Z,998.30
2019-01-20T10:40:57.309Z,998.30
2019-01-20T10:41:55.348Z,998.32
2019-01-20T10:44:15.686Z,998.37
2019-01-20T10:44:54.428Z,998.38
2019-01-20T10:45:55.340Z,998.36
2019-01-20T10:46:55.161Z,998.39
2019-01-20T10:47:54.600Z,998.38
2019-01-20T10:48:59.395Z,998.44
2019-01-20T10:49:55.247Z,998.42
2019-01-20T10:50:54.479Z,998.37
2019-01-20T10:51:54.780Z,998.34
2019-01-20T10:53:54.375Z,998.43
2019-01-20T10:54:56.219Z,998.37
2019-01-20T10:55:55.365Z,998.37
2019-01-20T10:56:56.195Z,998.36
2019-01-20T10:57:57.167Z,998.34
2019-01-20T10:58:55.249Z,998.34
2019-01-20T10:59:54.539Z,998.37
2019-01-20T11:01:57.173Z,998.37
2019-01-20T11:02:54.532Z,998.35
2019-01-20T11:03:56.320Z,998.39
2019-01-20T11:04:57.273Z,998.43
2019-01-20T11:05:57.355Z,998.42
2019-01-20T11:06:56.358Z,998.46
2019-01-20T11:07:56.378Z,998.46
2019-01-20T11:08:59.397Z,998.48
2019-01-20T11:09:54.267Z,998.50
2019-01-20T11:10:56.721Z,998.55
2019-01-20T11:11:54.827Z,998.60
2019-01-20T11:12:54.312Z,998.56
2019-01-20T11:13:54.386Z,998.59
2019-01-20T11:14:54.661Z,998.58
2019-01-20T11:15:56.717Z,998.64
2019-01-20T11:16:55.877Z,998.61
2019-01-20T11:17:58.777Z,998.65
2019-01-20T11:18:54.081Z,998.64
2019-01-20T11:19:54.260Z,998.59
2019-01-20T11:20:54.143Z,998.71
2019-01-20T11:22:15.216Z,998.70
2019-01-20T11:23:08.812Z,998.68
2019-01-20T11:23:54.229Z,998.71
2019-01-20T11:24:56.845Z,998.69
2019-01-20T11:25:54.836Z,998.65
2019-01-20T11:27:00.832Z,998.67
2019-01-20T11:27:54.131Z,998.65
2019-01-20T11:28:54.280Z,998.69
2019-01-20T11:29:54.725Z,998.65
2019-01-20T11:30:54.264Z,998.63
2019-01-20T11:31:54.212Z,998.65
2019-01-20T11:32:54.100Z,998.68
2019-01-20T11:33:54.043Z,998.62
2019-01-20T11:34:54.076Z,998.63
2019-01-20T11:35:54.089Z,998.63
2019-01-20T11:36:55.837Z,998.59
2019-01-20T11:37:54.125Z,998.65
2019-01-20T11:38:55.881Z,998.55
2019-01-20T11:39:54.181Z,998.57
2019-01-20T11:40:53.848Z,998.61
2019-01-20T11:41:54.108Z,998.58
2019-01-20T11:43:53.902Z,998.63
2019-01-20T11:44:53.960Z,998.69
2019-01-20T11:45:53.984Z,998.66
2019-01-20T11:46:55.721Z,998.60
2019-01-20T11:47:53.941Z,998.65
2019-01-20T11:48:54.838Z,998.60
2019-01-20T11:49:53.862Z,998.68
2019-01-20T11:50:54.728Z,998.74
2019-01-20T11:51:53.884Z,998.68
2019-01-20T11:52:53.840Z,998.68
2019-01-20T11:55:17.869Z,998.77
2019-01-20T11:56:14.667Z,998.79
2019-01-20T11:57:14.673Z,998.77
2019-01-20T11:58:14.811Z,998.77
2019-01-20T11:59:14.554Z,998.75
2019-01-20T12:00:15.310Z,998.75
2019-01-20T12:01:14.745Z,998.80
2019-01-20T12:02:22.352Z,998.72
2019-01-20T12:03:14.962Z,998.74
2019-01-20T12:04:14.677Z,998.69
2019-01-20T12:05:14.617Z,998.67
2019-01-20T12:06:14.587Z,998.76
2019-01-20T12:07:14.599Z,998.73
2019-01-20T12:08:15.394Z,998.73
2019-01-20T12:09:21.146Z,998.71
2019-01-20T12:10:14.591Z,998.74
2019-01-20T12:11:14.639Z,998.75
2019-01-20T12:12:15.158Z,998.67
2019-01-20T12:13:14.484Z,998.68
2019-01-20T12:14:15.274Z,998.70
2019-01-20T12:15:14.547Z,998.72
2019-01-20T12:16:14.401Z,998.76
2019-01-20T12:17:16.154Z,998.80
2019-01-20T12:18:16.215Z,998.82
2019-01-20T12:20:14.514Z,998.84
2019-01-20T12:21:14.421Z,998.87
2019-01-20T12:22:17.304Z,998.88
2019-01-20T12:23:14.304Z,998.91
2019-01-20T12:24:15.287Z,998.94
2019-01-20T12:25:14.509Z,998.86
2019-01-20T12:26:15.371Z,998.93
2019-01-20T12:27:14.418Z,998.89
2019-01-20T12:28:15.838Z,998.91
2019-01-20T12:29:14.313Z,998.95
2019-01-20T12:30:15.298Z,998.93
2019-01-20T12:31:14.246Z,998.90
2019-01-20T12:32:14.210Z,998.86
2019-01-20T12:33:14.802Z,998.87
2019-01-20T12:34:14.240Z,998.87
2019-01-20T12:35:14.215Z,998.83
2019-01-20T12:36:14.177Z,998.87
2019-01-20T12:37:14.164Z,998.84
2019-01-20T12:38:14.238Z,998.84
2019-01-20T12:39:14.347Z,998.85
2019-01-20T12:40:14.862Z,998.82
2019-01-20T12:41:14.248Z,998.78
2019-01-20T12:42:14.283Z,998.80
2019-01-20T12:43:14.786Z,998.78
2019-01-20T12:44:13.942Z,998.82
2019-01-20T12:45:14.065Z,998.78
2019-01-20T12:46:14.076Z,998.79